Time;durP1;ratioP1;P1;durP2;ratioP2;P2;SDS_P1;SDS_P2;PMS_P1;PMS_P2;Temp;Humidity;BMP_temperature;BMP_pressure;BME280_temperature;BME280_humidity;BME280_pressure;Samples;Min_cycle;Max_cycle;Signal;HPM_P1;HPM_P2
2023/12/14 00:02:10;;;;;;;1.70;1.70;;;;;;;3.95;100.00;98686.50;5073085;28;20216;-67
2023/12/14 00:04:37;;;;;;;1.33;1.33;;;;;;;3.95;100.00;98677.19;5070491;28;20289;-67
2023/12/14 00:07:04;;;;;;;0.50;0.50;;;;;;;3.92;100.00;98664.56;5066390;28;20249;-67
2023/12/14 00:09:31;;;;;;;1.60;1.60;;;;;;;3.96;100.00;98665.34;5069743;28;20208;-68
2023/12/14 00:11:57;;;;;;;3.00;2.10;;;;;;;3.96;100.00;98667.88;5070222;28;20722;-68
2023/12/14 00:14:24;;;;;;;1.77;1.77;;;;;;;3.94;100.00;98672.97;5070051;28;20294;-67
2023/12/14 00:16:52;;;;;;;1.43;1.43;;;;;;;3.95;100.00;98687.34;5070657;28;20203;-67
2023/12/14 00:19:19;;;;;;;0.70;0.70;;;;;;;3.95;100.00;98684.78;5073785;28;20683;-67
2023/12/14 00:21:46;;;;;;;1.17;1.17;;;;;;;3.93;100.00;98686.53;5069673;28;20313;-67
2023/12/14 00:24:12;;;;;;;1.20;1.20;;;;;;;3.95;100.00;98694.09;5066142;28;20196;-67
2023/12/14 00:26:39;;;;;;;2.30;2.20;;;;;;;3.87;100.00;98689.16;5070509;28;20258;-67
2023/12/14 00:29:06;;;;;;;0.97;0.97;;;;;;;3.77;100.00;98700.28;5070113;28;20192;-67
2023/12/14 00:31:33;;;;;;;2.53;1.20;;;;;;;3.77;100.00;98707.91;5070746;28;20277;-67
2023/12/14 00:34:01;;;;;;;1.00;1.00;;;;;;;3.80;100.00;98694.34;5070102;28;20254;-67
2023/12/14 00:36:28;;;;;;;1.13;1.13;;;;;;;3.80;100.00;98697.72;5069768;28;20196;-67
2023/12/14 00:38:55;;;;;;;2.00;1.90;;;;;;;3.81;100.00;98690.94;5072165;28;20595;-67
2023/12/14 00:41:22;;;;;;;0.93;0.93;;;;;;;3.81;100.00;98701.94;5073674;28;20315;-67
2023/12/14 00:43:48;;;;;;;0.80;0.80;;;;;;;3.84;100.00;98696.81;5073484;28;20572;-67
2023/12/14 00:46:15;;;;;;;1.33;1.10;;;;;;;3.81;100.00;98686.72;5078006;28;20204;-67
2023/12/14 00:48:42;;;;;;;1.17;1.17;;;;;;;3.74;100.00;98684.28;5073283;28;20207;-67
2023/12/14 00:51:10;;;;;;;1.00;1.00;;;;;;;3.80;100.00;98684.19;5075492;28;20211;-67
2023/12/14 00:53:37;;;;;;;1.33;1.33;;;;;;;3.83;100.00;98689.22;5073538;28;20219;-67
2023/12/14 00:56:04;;;;;;;1.23;1.23;;;;;;;3.85;100.00;98688.31;5074354;28;20299;-67
2023/12/14 00:58:31;;;;;;;0.70;0.70;;;;;;;3.87;100.00;98696.75;5073648;28;20200;-67
2023/12/14 01:00:58;;;;;;;2.77;1.00;;;;;;;3.84;100.00;98681.59;5073386;28;20216;-67
2023/12/14 01:03:24;;;;;;;1.30;1.30;;;;;;;3.85;100.00;98682.41;5073048;28;20265;-67
2023/12/14 01:05:51;;;;;;;1.43;1.43;;;;;;;3.87;100.00;98668.88;5074412;28;20675;-67
2023/12/14 01:08:19;;;;;;;1.13;1.13;;;;;;;3.85;100.00;98668.03;5073256;28;20195;-67
2023/12/14 01:10:46;;;;;;;2.13;1.13;;;;;;;3.85;100.00;98657.91;5072737;28;20745;-67
2023/12/14 01:13:12;;;;;;;0.80;0.80;;;;;;;3.85;100.00;98662.97;5074554;28;20246;-67
2023/12/14 01:15:39;;;;;;;1.23;1.23;;;;;;;3.87;100.00;98656.19;5072425;28;20257;-66
2023/12/14 01:18:06;;;;;;;1.43;1.43;;;;;;;3.88;100.00;98662.13;5077867;28;20261;-67
2023/12/14 01:20:32;;;;;;;1.37;1.37;;;;;;;3.86;100.00;98666.34;5075420;28;20203;-67
2023/12/14 01:22:59;;;;;;;2.70;2.60;;;;;;;3.84;100.00;98666.41;5072507;28;20660;-67
2023/12/14 01:25:27;;;;;;;0.77;0.77;;;;;;;3.72;100.00;98641.19;5072871;28;20200;-67
2023/12/14 01:27:54;;;;;;;1.13;1.13;;;;;;;3.80;100.00;98659.69;5072645;28;20748;-67
2023/12/14 01:30:21;;;;;;;1.70;1.70;;;;;;;3.86;100.00;98667.19;5074732;28;21121;-67
2023/12/14 01:32:47;;;;;;;2.27;1.83;;;;;;;3.77;100.00;98639.44;5075003;28;20192;-67
2023/12/14 01:35:14;;;;;;;1.40;1.40;;;;;;;3.84;100.00;98661.31;5073479;28;20262;-67
2023/12/14 01:37:41;;;;;;;0.90;0.90;;;;;;;3.83;100.00;98662.16;5072682;28;20242;-67
2023/12/14 01:40:09;;;;;;;1.53;1.53;;;;;;;3.84;100.00;98661.31;5073848;28;20200;-67
2023/12/14 01:42:37;;;;;;;1.50;1.50;;;;;;;3.84;100.00;98641.03;5072372;28;20273;-67
2023/12/14 01:45:04;;;;;;;1.03;1.03;;;;;;;3.81;100.00;98656.28;5071634;28;20281;-67
2023/12/14 01:47:31;;;;;;;1.53;1.53;;;;;;;3.78;100.00;98648.72;5073670;28;20643;-67
2023/12/14 01:49:57;;;;;;;1.70;1.70;;;;;;;3.76;100.00;98667.34;5073285;28;20204;-67
2023/12/14 01:52:24;;;;;;;1.03;1.03;;;;;;;3.76;100.00;98647.06;5072091;28;20220;-67
2023/12/14 01:54:51;;;;;;;1.80;1.57;;;;;;;3.71;100.00;98652.22;5072413;28;20645;-67
2023/12/14 01:57:17;;;;;;;2.00;1.90;;;;;;;3.64;100.00;98650.63;5071895;28;20196;-67
2023/12/14 01:59:46;;;;;;;1.17;1.17;;;;;;;3.63;100.00;98651.47;5074050;28;20686;-67
2023/12/14 02:02:12;;;;;;;1.70;1.70;;;;;;;3.62;100.00;98642.19;5071203;28;20216;-67
2023/12/14 02:04:39;;;;;;;1.47;1.47;;;;;;;3.59;100.00;98635.47;5071840;28;20200;-67
2023/12/14 02:07:06;;;;;;;2.63;1.43;;;;;;;3.65;100.00;98644.72;5072313;28;20196;-68
2023/12/14 02:09:32;;;;;;;2.10;1.53;;;;;;;3.68;100.00;98654.81;5071689;28;20200;-68
2023/12/14 02:11:59;;;;;;;1.43;1.43;;;;;;;3.68;100.00;98657.34;5072295;28;20222;-67
2023/12/14 02:14:26;;;;;;;1.13;1.13;;;;;;;3.67;100.00;98653.13;5071319;28;20200;-67
2023/12/14 02:16:54;;;;;;;1.93;1.70;;;;;;;3.66;100.00;98644.69;5074077;28;20291;-67
2023/12/14 02:19:21;;;;;;;2.07;0.87;;;;;;;3.68;100.00;98639.59;5075349;28;20192;-67
2023/12/14 02:21:48;;;;;;;0.87;0.87;;;;;;;3.66;100.00;98661.56;5071226;28;20219;-67
2023/12/14 02:24:16;;;;;;;1.10;1.10;;;;;;;3.62;100.00;98654.88;5071556;28;20292;-67
2023/12/14 02:26:42;;;;;;;1.30;1.30;;;;;;;3.60;100.00;98642.22;5071403;28;20196;-67
2023/12/14 02:29:09;;;;;;;1.93;1.83;;;;;;;3.56;100.00;98657.50;5074832;28;20196;-67
2023/12/14 02:31:36;;;;;;;1.53;1.53;;;;;;;3.58;100.00;98653.25;5071859;28;20668;-67
2023/12/14 02:34:03;;;;;;;1.33;1.33;;;;;;;3.52;100.00;98664.28;5071329;28;20192;-67
2023/12/14 02:36:29;;;;;;;1.83;1.83;;;;;;;3.45;100.00;98641.63;5071080;28;20205;-67
2023/12/14 02:38:56;;;;;;;2.10;1.87;;;;;;;3.43;100.00;98659.34;5071171;28;20254;-67
2023/12/14 02:41:24;;;;;;;1.13;1.13;;;;;;;3.45;100.00;98636.56;5072687;28;20216;-67
2023/12/14 02:43:51;;;;;;;1.07;1.07;;;;;;;3.45;100.00;98647.53;5071092;28;20669;-67
2023/12/14 02:46:18;;;;;;;1.47;1.47;;;;;;;3.36;100.00;98624.03;5071663;28;20321;-67
2023/12/14 02:48:45;;;;;;;1.37;1.37;;;;;;;3.41;100.00;98639.97;5072311;28;20633;-67
2023/12/14 02:51:14;;;;;;;5.90;2.13;;;;;;;3.40;100.00;98623.94;5072804;28;20227;-67
2023/12/14 02:53:41;;;;;;;1.23;1.23;;;;;;;3.37;100.00;98629.03;5070877;28;20204;-67
2023/12/14 02:56:10;;;;;;;2.50;2.40;;;;;;;3.32;100.00;98635.03;5070731;28;20242;-67
2023/12/14 02:58:38;;;;;;;1.80;1.67;;;;;;;3.31;100.00;98639.25;5070753;28;20195;-67
2023/12/14 03:01:05;;;;;;;1.43;1.43;;;;;;;3.33;100.00;98641.78;5070949;28;20207;-67
2023/12/14 03:03:31;;;;;;;2.50;2.40;;;;;;;3.28;100.00;98638.47;5070404;28;20207;-67
2023/12/14 03:05:58;;;;;;;0.80;0.80;;;;;;;3.23;100.00;98630.09;5070958;28;20200;-67
2023/12/14 03:08:25;;;;;;;1.90;1.80;;;;;;;3.28;100.00;98635.94;5070645;28;20200;-67
2023/12/14 03:10:51;;;;;;;1.67;1.67;;;;;;;3.29;100.00;98635.09;5072299;28;20850;-67
2023/12/14 03:13:18;;;;;;;1.10;1.10;;;;;;;3.31;100.00;98633.34;5069592;28;20253;-67
2023/12/14 03:15:48;;;;;;;2.53;2.33;;;;;;;3.32;100.00;98651.09;5073854;28;20256;-67
2023/12/14 03:18:15;;;;;;;1.23;1.23;;;;;;;3.33;100.00;98652.72;5071189;28;20231;-67
2023/12/14 03:20:42;;;;;;;1.00;1.00;;;;;;;3.34;100.00;98643.44;5074235;28;20196;-68
2023/12/14 03:23:09;;;;;;;1.63;1.53;;;;;;;3.35;100.00;98645.13;5070683;28;20220;-67
2023/12/14 03:25:35;;;;;;;2.13;2.03;;;;;;;3.38;100.00;98640.03;5070483;28;20245;-67
2023/12/14 03:28:02;;;;;;;0.93;0.93;;;;;;;3.38;100.00;98634.97;5070365;28;20199;-67
2023/12/14 03:30:29;;;;;;;2.23;2.13;;;;;;;3.36;100.00;98631.63;5071028;28;20623;-67
2023/12/14 03:32:57;;;;;;;1.47;1.47;;;;;;;3.34;100.00;98628.25;5073070;28;20200;-68
2023/12/14 03:35:24;;;;;;;1.20;1.20;;;;;;;3.33;100.00;98634.19;5070697;28;20634;-67
2023/12/14 03:37:50;;;;;;;1.00;1.00;;;;;;;3.29;100.00;98635.94;5071288;28;20203;-67
2023/12/14 03:40:17;;;;;;;1.40;1.30;;;;;;;3.24;100.00;98626.69;5070379;28;20200;-67
2023/12/14 03:42:44;;;;;;;3.10;1.70;;;;;;;3.29;100.00;98635.09;5070270;28;20212;-67
2023/12/14 03:45:11;;;;;;;0.70;0.70;;;;;;;3.34;100.00;98633.31;5070241;28;20200;-67
2023/12/14 03:47:38;;;;;;;0.87;0.87;;;;;;;3.33;100.00;98644.31;5072148;28;20643;-68
2023/12/14 03:50:08;;;;;;;1.07;1.07;;;;;;;3.32;100.00;98645.19;5070522;28;20246;-68
2023/12/14 03:52:34;;;;;;;1.30;1.20;;;;;;;3.33;100.00;98642.59;5070170;28;20192;-67
2023/12/14 03:55:01;;;;;;;1.20;1.20;;;;;;;3.30;100.00;98635.03;5070340;28;20630;-67
2023/12/14 03:57:28;;;;;;;2.60;2.50;;;;;;;3.36;100.00;98621.47;5070100;28;20203;-67
2023/12/14 03:59:55;;;;;;;1.57;1.57;;;;;;;3.36;100.00;98641.75;5072674;28;20199;-67
2023/12/14 04:02:21;;;;;;;1.07;1.07;;;;;;;3.37;100.00;98633.28;5069929;28;20208;-67
2023/12/14 04:04:48;;;;;;;1.53;1.53;;;;;;;3.40;100.00;98644.19;5070125;28;20634;-68
2023/12/14 04:07:16;;;;;;;1.43;1.43;;;;;;;3.37;100.00;98638.34;5070371;28;20664;-68
2023/12/14 04:09:44;;;;;;;1.13;1.13;;;;;;;3.41;100.00;98645.03;5070995;28;20721;-67
2023/12/14 04:12:11;;;;;;;1.50;1.50;;;;;;;3.40;100.00;98645.91;5071139;28;20237;-68
2023/12/14 04:14:37;;;;;;;1.20;1.20;;;;;;;3.42;100.00;98646.72;5074390;28;20203;-67
2023/12/14 04:17:04;;;;;;;0.70;0.70;;;;;;;3.27;100.00;98632.56;5079260;28;20199;-67
2023/12/14 04:19:31;;;;;;;1.30;1.30;;;;;;;3.21;100.00;98634.34;5074933;28;20664;-67
2023/12/14 04:21:58;;;;;;;0.70;0.70;;;;;;;3.22;100.00;98633.47;5075173;28;20208;-67
2023/12/14 04:24:26;;;;;;;1.67;1.67;;;;;;;3.28;100.00;98641.84;5073707;28;20645;-68
2023/12/14 04:26:53;;;;;;;0.90;0.90;;;;;;;3.20;100.00;98653.75;5073895;28;20219;-67
2023/12/14 04:29:19;;;;;;;1.87;1.87;;;;;;;3.25;100.00;98634.28;5076959;28;20207;-67
2023/12/14 04:31:46;;;;;;;1.60;1.60;;;;;;;3.30;100.00;98626.59;5076538;28;20208;-67
2023/12/14 04:34:15;;;;;;;0.80;0.80;;;;;;;3.32;100.00;98629.97;5075401;28;20196;-67
2023/12/14 04:36:42;;;;;;;2.27;2.27;;;;;;;3.31;100.00;98625.75;5073446;28;20200;-67
2023/12/14 04:39:09;;;;;;;0.63;0.63;;;;;;;3.35;100.00;98619.81;5074211;28;20196;-67
2023/12/14 04:41:37;;;;;;;1.30;1.30;;;;;;;3.34;100.00;98631.63;5075700;28;20204;-67
2023/12/14 04:44:04;;;;;;;2.50;2.40;;;;;;;3.33;100.00;98631.66;5075237;28;20722;-68
2023/12/14 04:46:31;;;;;;;0.63;0.63;;;;;;;3.37;100.00;98618.06;5074094;28;20192;-67
2023/12/14 04:48:57;;;;;;;1.20;1.20;;;;;;;3.32;100.00;98604.66;5075970;28;20249;-67
2023/12/14 04:51:24;;;;;;;0.60;0.60;;;;;;;3.42;100.00;98613.78;5078166;28;20654;-67
2023/12/14 04:53:51;;;;;;;1.33;1.27;;;;;;;3.39;100.00;98624.81;5074686;28;20200;-67
2023/12/14 04:56:17;;;;;;;1.17;1.17;;;;;;;3.35;100.00;98614.72;5073212;28;20200;-68
2023/12/14 04:58:46;;;;;;;1.07;1.07;;;;;;;3.33;100.00;98616.47;5074269;28;20199;-67
2023/12/14 05:01:13;;;;;;;1.47;1.47;;;;;;;3.30;100.00;98607.19;5072018;28;20211;-67
2023/12/14 05:03:39;;;;;;;1.47;1.10;;;;;;;3.31;100.00;98625.75;5072701;28;20222;-67
2023/12/14 05:06:07;;;;;;;1.93;1.93;;;;;;;3.32;100.00;98620.69;5073117;28;20219;-68
2023/12/14 05:08:33;;;;;;;0.80;0.80;;;;;;;3.35;100.00;98617.28;5074062;28;20227;-67
2023/12/14 05:11:00;;;;;;;1.83;1.83;;;;;;;3.35;100.00;98630.78;5072610;28;20196;-67
2023/12/14 05:13:27;;;;;;;1.00;1.00;;;;;;;3.35;100.00;98624.88;5072660;28;20196;-67
2023/12/14 05:15:57;;;;;;;1.03;1.03;;;;;;;3.34;100.00;98602.91;5072722;28;20192;-67
2023/12/14 05:18:27;;;;;;;1.00;1.00;;;;;;;3.31;100.00;98619.00;5072573;28;20269;-67
2023/12/14 05:20:54;;;;;;;1.50;1.50;;;;;;;3.29;100.00;98610.59;5074463;28;20196;-67
2023/12/14 05:23:20;;;;;;;0.90;0.90;;;;;;;3.32;100.00;98638.41;5071892;28;20274;-67
2023/12/14 05:25:47;;;;;;;0.90;0.90;;;;;;;3.28;100.00;98615.66;5071436;28;21555;-67
2023/12/14 05:28:14;;;;;;;5.43;1.70;;;;;;;3.18;100.00;98632.69;5072354;28;20664;-67
2023/12/14 05:30:41;;;;;;;2.10;2.00;;;;;;;3.16;100.00;98637.78;5072173;28;20200;-67
2023/12/14 05:33:09;;;;;;;1.67;1.67;;;;;;;3.24;100.00;98636.81;5071861;28;20200;-67
2023/12/14 05:35:36;;;;;;;0.80;0.80;;;;;;;3.26;100.00;98625.00;5072575;28;20652;-67
2023/12/14 05:38:02;;;;;;;1.23;1.23;;;;;;;3.28;100.00;98620.75;5070147;28;20199;-67
2023/12/14 05:40:29;;;;;;;3.23;1.53;;;;;;;3.24;100.00;98616.56;5072920;28;20208;-67
2023/12/14 05:42:56;;;;;;;0.80;0.80;;;;;;;3.17;100.00;98628.47;5072250;28;20216;-67
2023/12/14 05:45:23;;;;;;;1.60;1.60;;;;;;;3.17;100.00;98641.97;5070451;28;20204;-67
2023/12/14 05:47:51;;;;;;;1.23;1.23;;;;;;;3.17;100.00;98631.00;5074457;28;20639;-67
2023/12/14 05:50:19;;;;;;;1.30;1.30;;;;;;;3.16;100.00;98639.47;5074685;28;20273;-67
2023/12/14 05:52:45;;;;;;;1.67;1.67;;;;;;;3.12;100.00;98638.66;5072326;28;20199;-68
2023/12/14 05:55:12;;;;;;;0.83;0.83;;;;;;;3.14;100.00;98647.06;5069615;28;20257;-67
2023/12/14 05:57:41;;;;;;;1.10;1.10;;;;;;;3.14;100.00;98642.00;5071813;28;20196;-68
2023/12/14 06:00:08;;;;;;;1.00;1.00;;;;;;;3.12;100.00;98656.41;5076279;28;20196;-67
2023/12/14 06:02:36;;;;;;;1.23;1.23;;;;;;;3.15;100.00;98663.94;5072269;28;20311;-67
2023/12/14 06:05:04;;;;;;;1.77;1.67;;;;;;;3.09;100.00;98664.03;5071918;28;20610;-67
2023/12/14 06:07:32;;;;;;;1.70;1.70;;;;;;;3.10;100.00;98662.34;5071542;28;20649;-67
2023/12/14 06:09:58;;;;;;;1.20;1.20;;;;;;;3.01;100.00;98655.69;5074868;28;20195;-67
2023/12/14 06:12:25;;;;;;;1.17;1.17;;;;;;;3.08;100.00;98672.47;5071649;28;20188;-67
2023/12/14 06:14:52;;;;;;;1.23;1.23;;;;;;;3.08;100.00;98662.34;5069130;28;20317;-68
2023/12/14 06:17:18;;;;;;;1.30;1.30;;;;;;;3.11;100.00;98656.41;5073608;28;20592;-67
2023/12/14 06:19:45;;;;;;;3.07;1.10;;;;;;;3.11;100.00;98656.41;5073502;28;20200;-67
2023/12/14 06:22:12;;;;;;;2.10;1.37;;;;;;;3.13;100.00;98654.72;5071431;28;20258;-67
2023/12/14 06:24:40;;;;;;;1.30;1.30;;;;;;;3.10;100.00;98655.56;5071545;28;20627;-67
2023/12/14 06:27:07;;;;;;;1.77;1.77;;;;;;;3.12;100.00;98663.16;5067558;28;20684;-67
2023/12/14 06:29:33;;;;;;;1.47;1.47;;;;;;;3.10;100.00;98655.56;5071756;28;20192;-68
2023/12/14 06:32:00;;;;;;;1.30;1.30;;;;;;;3.12;100.00;98671.59;5073368;28;20203;-67
2023/12/14 06:34:27;;;;;;;1.73;1.63;;;;;;;3.14;100.00;98676.63;5069391;28;20204;-67
2023/12/14 06:36:53;;;;;;;1.03;1.03;;;;;;;3.13;100.00;98660.59;5074646;28;20204;-67
2023/12/14 06:39:20;;;;;;;1.53;1.43;;;;;;;3.15;100.00;98663.94;5073198;28;20207;-64
2023/12/14 06:41:48;;;;;;;2.00;2.00;;;;;;;3.21;100.00;98674.84;5071967;28;20658;-64
2023/12/14 06:44:16;;;;;;;1.13;1.13;;;;;;;3.27;100.00;98672.25;5071832;28;20592;-64
2023/12/14 06:46:43;;;;;;;1.10;1.10;;;;;;;3.34;100.00;98668.78;5071915;28;20200;-64
2023/12/14 06:49:10;;;;;;;2.33;2.23;;;;;;;3.39;100.00;98667.03;5071525;28;20257;-63
2023/12/14 06:51:37;;;;;;;2.07;2.07;;;;;;;3.45;100.00;98670.31;5070532;28;20223;-68
2023/12/14 06:54:04;;;;;;;0.80;0.80;;;;;;;3.54;100.00;98674.44;5073873;28;20196;-68
2023/12/14 06:56:31;;;;;;;8.87;5.77;;;;;;;3.64;100.00;98673.44;5070548;28;20454;-65
2023/12/14 06:58:59;;;;;;;3.37;3.07;;;;;;;3.81;100.00;98656.28;5070329;28;20257;-66
2023/12/14 07:01:26;;;;;;;1.63;1.63;;;;;;;3.84;100.00;98656.25;5070817;28;20274;-66
2023/12/14 07:03:53;;;;;;;1.47;1.47;;;;;;;3.86;100.00;98669.72;5071336;28;20220;-65
2023/12/14 07:06:20;;;;;;;1.77;1.77;;;;;;;3.88;100.00;98664.66;5070502;28;20226;-66
2023/12/14 07:08:47;;;;;;;1.57;1.17;;;;;;;3.85;100.00;98665.50;5070192;28;20227;-66
2023/12/14 07:11:14;;;;;;;2.20;2.10;;;;;;;3.83;100.00;98664.72;5069834;28;20200;-66
2023/12/14 07:13:41;;;;;;;2.23;2.20;;;;;;;3.86;100.00;98664.66;5070007;28;20200;-65
2023/12/14 07:16:11;;;;;;;0.90;0.90;;;;;;;3.80;100.00;98659.69;5069238;28;20204;-66
2023/12/14 07:18:37;;;;;;;1.43;1.43;;;;;;;3.75;100.00;98648.75;5069027;28;20291;-65
2023/12/14 07:21:05;;;;;;;1.27;1.27;;;;;;;3.84;100.00;98675.69;5069094;28;20200;-66
2023/12/14 07:23:32;;;;;;;1.53;1.53;;;;;;;3.86;100.00;98664.66;5072040;28;20645;-66
2023/12/14 07:25:59;;;;;;;0.80;0.80;;;;;;;3.85;100.00;98657.06;5069954;28;20200;-66
2023/12/14 07:28:27;;;;;;;2.30;2.20;;;;;;;3.88;100.00;98657.03;5068575;28;20200;-65
2023/12/14 07:30:54;;;;;;;1.37;1.37;;;;;;;3.87;100.00;98666.34;5069362;28;20198;-66
2023/12/14 07:33:22;;;;;;;1.90;1.80;;;;;;;3.74;100.00;98676.69;5070344;28;20200;-66
2023/12/14 07:35:49;;;;;;;2.10;2.10;;;;;;;3.77;100.00;98677.47;5072224;28;20195;-65
2023/12/14 07:38:15;;;;;;;3.10;3.00;;;;;;;3.90;100.00;98671.38;5071036;28;20204;-65
2023/12/14 07:40:42;;;;;;;1.13;1.13;;;;;;;4.02;100.00;98678.78;5070829;28;20203;-65
2023/12/14 07:43:09;;;;;;;5.97;2.53;;;;;;;4.04;100.00;98658.47;5071024;28;20269;-66
2023/12/14 07:45:36;;;;;;;2.03;1.93;;;;;;;3.97;100.00;98654.38;5070717;28;20196;-65
2023/12/14 07:48:03;;;;;;;1.10;1.10;;;;;;;4.06;100.00;98672.81;5070088;28;20258;-65
2023/12/14 07:50:31;;;;;;;1.23;1.23;;;;;;;4.15;100.00;98680.25;5070780;28;20248;-66
2023/12/14 07:52:58;;;;;;;1.17;1.17;;;;;;;4.22;100.00;98669.16;5071240;28;20200;-66
2023/12/14 07:55:25;;;;;;;1.20;1.20;;;;;;;4.30;100.00;98671.53;5070737;28;20257;-66
2023/12/14 07:57:52;;;;;;;1.77;1.77;;;;;;;4.37;100.00;98687.50;5070835;28;20196;-67
2023/12/14 08:00:19;;;;;;;1.23;1.23;;;;;;;4.50;100.00;98684.75;5070673;28;20196;-66
2023/12/14 08:02:46;;;;;;;1.37;1.37;;;;;;;4.60;100.00;98696.41;5070821;28;20207;-66
2023/12/14 08:05:12;;;;;;;1.47;1.47;;;;;;;4.67;100.00;98682.75;5076986;28;20200;-66
2023/12/14 08:07:40;;;;;;;1.37;1.37;;;;;;;4.76;100.00;98686.81;5070218;28;20257;-66
2023/12/14 08:10:08;;;;;;;5.80;4.55;;;;;;;4.85;100.00;98689.19;5073661;28;20455;-65
2023/12/14 08:12:35;;;;;;;3.17;2.97;;;;;;;5.06;100.00;98701.50;5070778;28;20644;-65
2023/12/14 08:15:02;;;;;;;2.23;2.03;;;;;;;5.14;100.00;98676.75;5076661;28;20254;-65
2023/12/14 08:17:28;;;;;;;1.03;1.03;;;;;;;5.24;100.00;98670.63;5076859;28;20683;-65
2023/12/14 08:19:55;;;;;;;1.47;1.47;;;;;;;5.30;100.00;98683.19;5071289;28;20207;-65
2023/12/14 08:22:22;;;;;;;1.23;1.23;;;;;;;5.40;100.00;98688.94;5070522;28;20629;-65
2023/12/14 08:24:50;;;;;;;1.70;1.70;;;;;;;5.49;100.00;98681.13;5071749;28;20238;-66
2023/12/14 08:27:17;;;;;;;1.00;1.00;;;;;;;5.62;100.00;98691.88;5071497;28;20639;-66
2023/12/14 08:29:45;;;;;;;1.60;1.60;;;;;;;5.70;100.00;98684.91;5069951;28;20202;-68
2023/12/14 08:32:12;;;;;;;2.20;2.17;;;;;;;5.75;100.00;98667.84;5067170;28;20292;-66
2023/12/14 08:34:38;;;;;;;1.50;1.40;;;;;;;5.79;100.00;98684.69;5070479;28;20195;-66
2023/12/14 08:37:05;;;;;;;1.67;1.67;;;;;;;5.83;100.00;98687.16;5070442;28;20249;-64
2023/12/14 08:39:32;;;;;;;1.47;1.40;;;;;;;5.97;100.00;98698.75;5071165;28;20196;-66
2023/12/14 08:42:00;;;;;;;2.30;2.20;;;;;;;6.02;100.00;98695.22;5070581;28;20200;-65
2023/12/14 08:44:27;;;;;;;1.50;1.40;;;;;;;6.13;100.00;98695.81;5070620;28;20223;-66
2023/12/14 08:46:53;;;;;;;1.73;0.80;;;;;;;6.18;100.00;98683.81;5067802;28;20688;-66
2023/12/14 08:49:20;;;;;;;1.50;1.40;;;;;;;6.26;100.00;98689.56;5070445;28;20254;-65
2023/12/14 08:51:47;;;;;;;1.40;1.33;;;;;;;6.39;100.00;98684.16;5068358;28;20236;-64
2023/12/14 08:54:14;;;;;;;2.30;1.67;;;;;;;6.54;100.00;98686.31;5069240;28;20192;-64
2023/12/14 08:56:40;;;;;;;1.53;1.00;;;;;;;6.63;100.00;98697.09;5070810;28;20204;-63
2023/12/14 08:59:09;;;;;;;2.90;1.60;;;;;;;6.77;100.00;98689.09;5074075;28;20261;-64
2023/12/14 09:01:36;;;;;;;1.37;1.37;;;;;;;6.86;100.00;98692.25;5072146;28;20291;-64
2023/12/14 09:04:03;;;;;;;1.43;1.43;;;;;;;6.93;100.00;98690.38;5075833;28;20219;-64
2023/12/14 09:06:29;;;;;;;1.80;1.70;;;;;;;7.04;100.00;98693.47;5073030;28;20741;-63
2023/12/14 09:08:56;;;;;;;1.30;1.30;;;;;;;7.10;100.00;98680.56;5073173;28;20196;-66
2023/12/14 09:11:24;;;;;;;1.70;1.60;;;;;;;7.11;100.00;98684.78;5073523;28;20204;-65
2023/12/14 09:13:51;;;;;;;2.67;2.53;;;;;;;7.21;100.00;98676.00;5073767;28;20192;-65
2023/12/14 09:16:19;;;;;;;2.63;2.17;;;;;;;7.27;100.00;98675.81;5076345;28;20680;-64
2023/12/14 09:18:46;;;;;;;1.43;1.43;;;;;;;7.35;100.00;98676.44;5073768;28;20257;-64
2023/12/14 09:21:14;;;;;;;5.33;2.83;;;;;;;7.47;100.00;98671.84;5073631;28;20207;-65
2023/12/14 09:23:41;;;;;;;3.37;1.33;;;;;;;7.53;100.00;98669.16;5073850;28;20306;-64
2023/12/14 09:26:08;;;;;;;2.80;1.77;;;;;;;7.57;100.00;98643.50;5073746;28;20735;-65
2023/12/14 09:28:35;;;;;;;2.43;2.30;;;;;;;7.71;100.00;98646.47;5073652;28;20200;-65
2023/12/14 09:31:01;;;;;;;2.83;2.70;;;;;;;7.75;100.00;98657.41;5073568;28;20258;-66
2023/12/14 09:33:30;;;;;;;2.00;1.60;;;;;;;7.82;100.00;98648.66;5073901;28;20200;-66
2023/12/14 09:35:57;;;;;;;2.03;1.93;;;;;;;7.84;100.00;98644.38;5074126;28;20279;-65
2023/12/14 09:38:23;;;;;;;3.33;2.43;;;;;;;7.84;100.00;98641.81;5073757;28;20191;-65
2023/12/14 09:40:50;;;;;;;2.97;2.53;;;;;;;7.90;100.00;98626.31;5073969;28;20208;-65
2023/12/14 09:43:17;;;;;;;2.43;2.33;;;;;;;7.91;100.00;98625.44;5073707;28;20650;-64
2023/12/14 09:45:44;;;;;;;2.63;2.43;;;;;;;7.92;100.00;98620.28;5073573;28;20245;-66
2023/12/14 09:48:12;;;;;;;4.20;3.07;;;;;;;8.02;100.00;98625.91;5073503;28;20253;-65
2023/12/14 09:50:42;;;;;;;8.93;2.37;;;;;;;8.01;100.00;98616.63;5073283;28;20227;-65
2023/12/14 09:53:08;;;;;;;2.40;2.20;;;;;;;8.10;100.00;98618.03;5073307;28;20288;-63
2023/12/14 09:55:36;;;;;;;2.57;2.37;;;;;;;8.23;100.00;98625.22;5072285;28;20675;-65
2023/12/14 09:58:03;;;;;;;2.23;2.13;;;;;;;8.41;100.00;98629.75;5073488;28;20204;-66
2023/12/14 10:00:37;;;;;;;2.90;2.67;;;;;;;8.48;100.00;98624.44;5073419;28;20228;-64
2023/12/14 10:03:27;;;;;;;1.77;1.50;;;;;;;8.55;100.00;98620.78;5073217;28;20595;-65
2023/12/14 10:05:56;;;;;;;2.73;2.60;;;;;;;8.62;100.00;98617.97;5066900;28;20204;-65
2023/12/14 10:08:23;;;;;;;2.40;2.20;;;;;;;8.76;100.00;98620.03;5072692;28;20208;-66
2023/12/14 10:10:52;;;;;;;4.97;3.57;;;;;;;8.82;100.00;98619.84;5072018;28;20200;-64
2023/12/14 10:13:19;;;;;;;3.10;2.90;;;;;;;8.87;100.00;98628.16;5072631;28;20231;-65
2023/12/14 10:15:48;;;;;;;4.17;3.37;;;;;;;8.97;100.00;98614.16;5072774;28;20741;-64
2023/12/14 10:18:22;;;;;;;3.77;3.47;;;;;;;9.01;100.00;98610.63;5067511;28;20246;-64
2023/12/14 10:20:49;;;;;;;3.50;2.50;;;;;;;9.09;100.00;98585.59;5072749;28;20676;-65
2023/12/14 10:23:18;;;;;;;3.47;3.17;;;;;;;9.17;100.00;98591.25;5078178;28;20652;-64
2023/12/14 10:25:46;;;;;;;3.07;2.87;;;;;;;9.26;100.00;98590.91;5072548;28;20294;-64
2023/12/14 10:28:13;;;;;;;2.93;2.73;;;;;;;9.35;100.00;98584.59;5072404;28;20204;-64
2023/12/14 10:30:40;;;;;;;4.37;2.43;;;;;;;9.43;100.00;98577.50;5072610;28;20292;-64
2023/12/14 10:33:07;;;;;;;6.20;4.47;;;;;;;9.50;100.00;98579.72;5072649;28;20200;-66
2023/12/14 10:35:34;;;;;;;3.07;2.87;;;;;;;9.64;100.00;98580.91;5072575;28;20199;-67
2023/12/14 10:38:04;;;;;;;5.13;3.33;;;;;;;9.72;100.00;98584.03;5072646;28;20196;-67
2023/12/14 10:44:36;;;;;;;2.50;2.37;;;;;;;9.75;100.00;98589.00;5067889;28;20203;-66
2023/12/14 10:47:07;;;;;;;4.70;2.50;;;;;;;9.68;100.00;98585.03;5060378;28;20253;-66
2023/12/14 10:49:35;;;;;;;4.30;3.73;;;;;;;9.77;100.00;98582.09;5072400;28;20203;-65
2023/12/14 10:52:04;;;;;;;3.07;2.83;;;;;;;9.74;100.00;98597.56;5072059;28;20224;-65
2023/12/14 10:54:33;;;;;;;3.53;2.30;;;;;;;9.76;100.00;98585.53;5072314;28;20287;-65
2023/12/14 10:57:00;;;;;;;2.83;1.83;;;;;;;9.87;100.00;98583.41;5072136;28;20258;-66
2023/12/14 10:59:27;;;;;;;2.00;1.67;;;;;;;9.91;100.00;98580.66;5072066;28;20279;-65
2023/12/14 11:01:54;;;;;;;12.57;3.97;;;;;;;9.96;100.00;98583.03;5071915;28;20200;-66
2023/12/14 11:04:23;;;;;;;2.73;2.50;;;;;;;10.02;100.00;98590.44;5071756;28;20676;-65
2023/12/14 11:06:50;;;;;;;3.63;3.33;;;;;;;9.99;100.00;98572.66;5071953;28;20618;-65
2023/12/14 11:09:19;;;;;;;3.37;2.97;;;;;;;10.08;100.00;98577.38;5071556;28;20192;-66
2023/12/14 11:11:57;;;;;;;3.50;2.80;;;;;;;10.12;100.00;98584.06;5071763;28;20261;-66
2023/12/14 11:14:24;;;;;;;2.30;2.20;;;;;;;10.08;100.00;98592.75;5071735;28;20660;-65
2023/12/14 11:16:54;;;;;;;3.13;2.93;;;;;;;10.06;100.00;98579.19;5071885;28;20257;-66
2023/12/14 11:19:30;;;;;;;4.83;2.50;;;;;;;10.13;100.00;98590.84;5071695;28;20206;-65
2023/12/14 11:22:26;;;;;;;5.13;4.10;;;;;;;10.15;100.00;98576.28;5071069;28;20199;-66
2023/12/14 11:24:55;;;;;;;3.63;3.43;;;;;;;10.17;100.00;98577.06;5052144;28;20680;-65
2023/12/14 11:27:27;;;;;;;3.07;2.97;;;;;;;10.19;100.00;98570.13;5066751;28;20208;-66
2023/12/14 11:29:54;;;;;;;3.73;2.60;;;;;;;10.17;100.00;98574.50;5071808;28;20254;-66
2023/12/14 11:32:21;;;;;;;4.00;3.70;;;;;;;10.16;100.00;98572.84;5071619;28;20699;-66
2023/12/14 11:34:50;;;;;;;7.10;5.00;;;;;;;10.22;100.00;98572.56;5072099;28;20188;-66
2023/12/14 11:37:18;;;;;;;3.23;3.03;;;;;;;10.19;100.00;98566.75;5072042;28;20287;-65
2023/12/14 11:39:46;;;;;;;4.30;2.90;;;;;;;10.15;100.00;98548.09;5071587;28;20576;-66